Time;durP1;ratioP1;P1;durP2;ratioP2;P2;SDS_P1;SDS_P2;PMS_P1;PMS_P2;Temp;Humidity;BMP_temperature;BMP_pressure;BME280_temperature;BME280_humidity;BME280_pressure;Samples;Min_cycle;Max_cycle;Signal;HPM_P1;HPM_P2
2023/03/01 00:01:17;;;;;;;106.63;36.88;;;;;;;;;;5076080;28;20073;-80
2023/03/01 00:03:43;;;;;;;120.78;40.83;;;;;;;;;;5075861;28;20107;-78
2023/03/01 00:06:09;;;;;;;92.93;33.30;;;;;;;;;;5092302;28;20513;-79
2023/03/01 00:08:34;;;;;;;108.55;36.10;;;;;;;;;;5059323;28;20059;-78
2023/03/01 00:11:07;;;;;;;109.00;36.33;;;;;;;;;;5059675;28;20028;-79
2023/03/01 00:13:33;;;;;;;111.57;38.63;;;;;;;;;;5093797;28;20024;-79
2023/03/01 00:15:59;;;;;;;109.90;38.10;;;;;;;;;;5093743;28;20028;-79
2023/03/01 00:18:24;;;;;;;113.05;38.90;;;;;;;;;;5076034;28;20189;-78
2023/03/01 00:20:53;;;;;;;96.47;33.53;;;;;;;;;;5075611;28;20039;-79
2023/03/01 00:23:18;;;;;;;101.38;37.42;;;;;;;;;;5075809;28;20438;-79
2023/03/01 00:25:44;;;;;;;109.95;37.20;;;;;;;;;;5059021;28;20035;-79
2023/03/01 00:28:09;;;;;;;100.88;35.97;;;;;;;;;;5092726;28;20126;-79
2023/03/01 00:30:35;;;;;;;113.40;36.17;;;;;;;;;;5094043;28;20028;-79
2023/03/01 00:33:00;;;;;;;113.75;39.50;;;;;;;;;;5095040;28;20172;-80
2023/03/01 00:35:26;;;;;;;107.65;36.67;;;;;;;;;;5079435;28;20138;-80
2023/03/01 00:37:57;;;;;;;97.35;33.63;;;;;;;;;;5079636;28;20103;-80
2023/03/01 00:40:27;;;;;;;116.15;39.47;;;;;;;;;;5096773;28;20077;-79
2023/03/01 00:42:52;;;;;;;101.80;34.55;;;;;;;;;;5079770;28;20032;-79
2023/03/01 00:45:17;;;;;;;110.95;37.22;;;;;;;;;;5097562;28;20043;-79
2023/03/01 00:47:43;;;;;;;116.72;37.38;;;;;;;;;;5062661;28;20384;-78
2023/03/01 00:50:09;;;;;;;117.25;38.08;;;;;;;;;;5062478;28;20050;-79
2023/03/01 00:52:35;;;;;;;105.82;35.95;;;;;;;;;;5062821;28;20130;-79
2023/03/01 00:55:00;;;;;;;108.93;37.78;;;;;;;;;;5079521;28;20068;-79
2023/03/01 00:57:25;;;;;;;112.35;36.53;;;;;;;;;;5062709;28;20123;-79
2023/03/01 00:59:52;;;;;;;107.97;36.35;;;;;;;;;;5079222;28;20085;-80
2023/03/01 01:02:20;;;;;;;109.05;37.00;;;;;;;;;;5097345;28;20024;-79
2023/03/01 01:04:46;;;;;;;104.00;35.72;;;;;;;;;;5062733;28;20059;-80
2023/03/01 01:07:12;;;;;;;101.30;35.50;;;;;;;;;;5079163;28;20064;-79
2023/03/01 01:09:37;;;;;;;100.57;34.38;;;;;;;;;;5079090;28;20456;-79
2023/03/01 01:12:03;;;;;;;96.75;35.13;;;;;;;;;;5062445;28;20081;-79
2023/03/01 01:14:28;;;;;;;106.45;38.08;;;;;;;;;;5045994;28;20032;-79
2023/03/01 01:16:54;;;;;;;101.38;35.65;;;;;;;;;;5062543;28;20031;-79
2023/03/01 01:19:19;;;;;;;102.40;36.25;;;;;;;;;;5078817;28;20509;-79
2023/03/01 01:21:45;;;;;;;98.90;34.33;;;;;;;;;;5079172;28;20449;-79
2023/03/01 01:24:12;;;;;;;108.18;35.83;;;;;;;;;;5062258;28;20028;-78
2023/03/01 01:26:37;;;;;;;100.88;34.60;;;;;;;;;;5045822;28;20046;-79
2023/03/01 01:29:03;;;;;;;98.05;34.63;;;;;;;;;;5078785;28;20032;-79
2023/03/01 01:31:29;;;;;;;91.68;31.40;;;;;;;;;;5062297;28;20024;-78
2023/03/01 01:33:55;;;;;;;93.65;34.53;;;;;;;;;;5061648;28;20051;-79
2023/03/01 01:36:20;;;;;;;91.53;34.45;;;;;;;;;;5062352;28;20028;-79
2023/03/01 01:38:46;;;;;;;104.38;34.05;;;;;;;;;;5062354;28;20366;-79
2023/03/01 01:41:12;;;;;;;98.15;35.72;;;;;;;;;;5096796;28;20067;-79
2023/03/01 01:43:42;;;;;;;96.95;35.03;;;;;;;;;;5078477;28;20027;-79
2023/03/01 01:46:16;;;;;;;93.88;33.80;;;;;;;;;;5095506;28;20086;-79
2023/03/01 01:48:45;;;;;;;95.70;34.15;;;;;;;;;;5096561;28;20420;-79
2023/03/01 01:51:18;;;;;;;95.65;33.60;;;;;;;;;;5095213;28;20457;-79
2023/03/01 01:53:44;;;;;;;98.22;34.60;;;;;;;;;;5078404;28;20031;-79
2023/03/01 01:56:10;;;;;;;97.55;33.13;;;;;;;;;;5078330;28;20024;-79
2023/03/01 01:58:35;;;;;;;97.32;32.85;;;;;;;;;;5082185;28;20038;-81
2023/03/01 02:01:01;;;;;;;98.03;32.88;;;;;;;;;;5095321;28;20028;-80
2023/03/01 02:03:32;;;;;;;92.93;32.80;;;;;;;;;;5078861;28;20055;-79
2023/03/01 02:06:07;;;;;;;93.45;33.10;;;;;;;;;;5078672;28;20093;-79
2023/03/01 02:08:35;;;;;;;86.70;30.55;;;;;;;;;;5096260;28;20028;-79
2023/03/01 02:11:00;;;;;;;92.70;32.50;;;;;;;;;;5061606;28;20035;-79
2023/03/01 02:13:26;;;;;;;96.18;34.40;;;;;;;;;;5078188;28;20028;-79
2023/03/01 02:15:51;;;;;;;88.68;31.35;;;;;;;;;;5078117;28;20414;-79
2023/03/01 02:18:18;;;;;;;97.75;34.55;;;;;;;;;;5095753;28;20138;-78
2023/03/01 02:21:11;;;;;;;86.43;31.38;;;;;;;;;;5077853;28;20031;-79
2023/03/01 02:23:36;;;;;;;88.65;32.50;;;;;;;;;;5090782;28;20044;-79
2023/03/01 02:26:36;;;;;;;83.10;30.55;;;;;;;;;;5077743;28;20405;-78
2023/03/01 02:29:02;;;;;;;82.85;30.60;;;;;;;;;;5075267;28;20036;-79
2023/03/01 02:31:43;;;;;;;83.32;29.17;;;;;;;;;;5077331;28;20169;-79
2023/03/01 02:34:09;;;;;;;;;;;;;;;;;;5094921;28;20071;-79
2023/03/01 02:36:37;;;;;;;80.43;28.42;;;;;;;;;;5094766;28;19916;-79
2023/03/01 02:39:06;;;;;;;77.25;27.50;;;;;;;;;;5061253;28;20032;-78
2023/03/01 02:41:34;;;;;;;83.15;29.05;;;;;;;;;;5077597;28;20498;-78
2023/03/01 02:44:00;;;;;;;77.10;28.25;;;;;;;;;;5077390;28;20373;-79
2023/03/01 02:46:25;;;;;;;78.15;28.63;;;;;;;;;;5093874;28;20036;-78
2023/03/01 02:48:52;;;;;;;74.22;28.42;;;;;;;;;;5073515;28;20016;-80
2023/03/01 02:51:20;;;;;;;82.72;31.63;;;;;;;;;;5060602;28;20077;-80
2023/03/01 02:54:10;;;;;;;81.78;30.58;;;;;;;;;;5077229;28;20028;-80
2023/03/01 02:56:35;;;;;;;68.83;26.97;;;;;;;;;;5077058;28;20024;-80
2023/03/01 02:59:02;;;;;;;83.60;29.95;;;;;;;;;;5077127;28;20119;-79
2023/03/01 03:01:37;;;;;;;81.82;31.27;;;;;;;;;;5060524;28;20448;-79
2023/03/01 03:04:16;;;;;;;74.30;28.83;;;;;;;;;;5078291;28;20035;-79
2023/03/01 03:06:45;;;;;;;76.07;27.90;;;;;;;;;;5077579;28;20036;-79
2023/03/01 03:09:11;;;;;;;77.57;30.17;;;;;;;;;;5077192;28;20028;-79
2023/03/01 03:11:38;;;;;;;74.28;27.95;;;;;;;;;;5076867;28;20476;-79
2023/03/01 03:14:04;;;;;;;74.63;29.23;;;;;;;;;;5044224;28;20032;-79
2023/03/01 03:16:30;;;;;;;80.40;31.02;;;;;;;;;;5060339;28;20054;-79
2023/03/01 03:19:04;;;;;;;71.03;29.55;;;;;;;;;;5060163;28;20066;-80
2023/03/01 03:21:31;;;;;;;76.25;29.85;;;;;;;;;;5078046;28;20085;-79
2023/03/01 03:23:57;;;;;;;77.03;31.10;;;;;;;;;;5076905;28;20028;-79
2023/03/01 03:26:23;;;;;;;83.43;31.77;;;;;;;;;;5094842;28;20411;-79
2023/03/01 03:28:48;;;;;;;97.72;33.10;;;;;;;;;;5093194;28;20035;-79
2023/03/01 03:31:13;;;;;;;74.63;31.08;;;;;;;;;;5060151;28;20023;-79
2023/03/01 03:33:39;;;;;;;79.65;31.85;;;;;;;;;;5093201;28;20032;-79
2023/03/01 03:36:05;;;;;;;81.85;32.95;;;;;;;;;;5094491;28;20455;-79
2023/03/01 03:38:30;;;;;;;76.28;30.45;;;;;;;;;;5094490;28;20080;-79
2023/03/01 03:41:03;;;;;;;76.57;31.88;;;;;;;;;;5094521;28;20032;-79
2023/03/01 03:43:48;;;;;;;81.07;31.20;;;;;;;;;;5094434;28;20361;-79
2023/03/01 03:46:14;;;;;;;81.00;29.33;;;;;;;;;;5076444;28;20082;-78
2023/03/01 03:48:44;;;;;;;79.47;30.65;;;;;;;;;;5091460;28;20036;-79
2023/03/01 03:51:10;;;;;;;69.88;27.30;;;;;;;;;;5091993;28;20143;-79
2023/03/01 03:53:36;;;;;;;66.88;26.67;;;;;;;;;;5076253;28;20111;-80
2023/03/01 03:56:20;;;;;;;75.57;30.10;;;;;;;;;;5094249;28;20469;-79
2023/03/01 03:59:23;;;;;;;69.85;27.65;;;;;;;;;;5094128;28;20111;-79
2023/03/01 04:01:49;;;;;;;78.88;31.42;;;;;;;;;;5076368;28;20035;-78
2023/03/01 04:04:17;;;;;;;82.72;29.95;;;;;;;;;;5076214;28;20032;-79
2023/03/01 04:06:43;;;;;;;72.90;26.92;;;;;;;;;;5094193;28;20460;-79
2023/03/01 04:09:08;;;;;;;69.40;27.63;;;;;;;;;;5092403;28;20036;-79
2023/03/01 04:11:34;;;;;;;82.50;32.80;;;;;;;;;;5076126;28;20028;-78
2023/03/01 04:14:00;;;;;;;73.53;29.80;;;;;;;;;;5059430;28;20043;-80
2023/03/01 04:16:25;;;;;;;73.13;27.45;;;;;;;;;;5094053;28;20024;-79
2023/03/01 04:18:53;;;;;;;75.47;28.92;;;;;;;;;;5059521;28;20032;-79
2023/03/01 04:21:20;;;;;;;78.32;29.90;;;;;;;;;;5076448;28;20107;-79
2023/03/01 04:23:45;;;;;;;87.63;31.52;;;;;;;;;;5059844;28;20035;-80
2023/03/01 04:26:10;;;;;;;85.13;31.85;;;;;;;;;;5075981;28;20036;-79
2023/03/01 04:28:39;;;;;;;84.18;31.08;;;;;;;;;;5092751;28;20032;-79
2023/03/01 04:31:23;;;;;;;88.32;35.10;;;;;;;;;;5076340;28;20468;-79
2023/03/01 04:33:53;;;;;;;82.40;32.03;;;;;;;;;;5075923;28;20100;-79
2023/03/01 04:36:19;;;;;;;79.57;31.77;;;;;;;;;;5076589;28;20394;-79
2023/03/01 04:38:48;;;;;;;79.80;30.20;;;;;;;;;;5059505;28;20177;-78
2023/03/01 04:41:14;;;;;;;75.75;29.45;;;;;;;;;;5059828;28;20024;-80
2023/03/01 04:43:40;;;;;;;78.07;30.83;;;;;;;;;;5075806;28;20063;-80
2023/03/01 04:46:09;;;;;;;85.53;32.10;;;;;;;;;;5075794;28;20071;-79
2023/03/01 04:48:35;;;;;;;86.78;31.75;;;;;;;;;;5076561;28;20043;-79
2023/03/01 04:51:01;;;;;;;89.80;30.60;;;;;;;;;;5085236;28;20394;-79
2023/03/01 04:53:28;;;;;;;81.28;30.55;;;;;;;;;;5085791;28;20150;-79
2023/03/01 04:55:57;;;;;;;72.95;27.17;;;;;;;;;;5075210;28;20057;-79
2023/03/01 04:58:23;;;;;;;96.07;33.00;;;;;;;;;;5089309;28;20401;-79
2023/03/01 05:00:49;;;;;;;85.65;33.42;;;;;;;;;;5092203;28;20032;-79
2023/03/01 05:03:17;;;;;;;81.88;30.27;;;;;;;;;;5092215;28;20028;-80
2023/03/01 05:05:44;;;;;;;80.15;29.80;;;;;;;;;;5093220;28;20051;-79
2023/03/01 05:08:17;;;;;;;81.93;30.52;;;;;;;;;;5108340;28;20050;-80
2023/03/01 05:10:44;;;;;;;79.55;30.55;;;;;;;;;;5080401;28;20032;-78
2023/03/01 05:13:09;;;;;;;81.28;28.90;;;;;;;;;;5093457;28;20514;-79
2023/03/01 05:15:36;;;;;;;100.22;35.05;;;;;;;;;;5093263;28;20036;-79
2023/03/01 05:18:01;;;;;;;94.78;36.67;;;;;;;;;;5075376;28;20397;-79
2023/03/01 05:20:28;;;;;;;98.60;37.65;;;;;;;;;;5077114;28;20028;-80
2023/03/01 05:22:55;;;;;;;87.05;33.85;;;;;;;;;;5078858;28;20039;-79
2023/03/01 05:25:21;;;;;;;77.75;29.67;;;;;;;;;;5096679;28;20444;-79
2023/03/01 05:27:46;;;;;;;87.53;33.55;;;;;;;;;;5091045;28;20044;-79
2023/03/01 05:30:15;;;;;;;80.13;28.73;;;;;;;;;;5074457;28;20032;-79
2023/03/01 05:32:48;;;;;;;94.55;34.67;;;;;;;;;;5074011;28;20048;-79
2023/03/01 05:35:15;;;;;;;86.55;31.27;;;;;;;;;;5073475;28;20045;-79
2023/03/01 05:37:44;;;;;;;79.93;29.83;;;;;;;;;;5040409;28;20029;-79
2023/03/01 05:40:15;;;;;;;87.13;34.40;;;;;;;;;;5073705;28;20611;-86
2023/03/01 05:42:45;;;;;;;84.72;31.55;;;;;;;;;;5041565;28;20035;-80
2023/03/01 05:45:12;;;;;;;84.70;30.25;;;;;;;;;;5092668;28;20234;-80
2023/03/01 05:47:43;;;;;;;82.90;30.83;;;;;;;;;;5036234;28;20046;-80
2023/03/01 05:50:13;;;;;;;92.85;35.58;;;;;;;;;;5075084;28;20048;-82
2023/03/01 05:52:39;;;;;;;89.95;33.80;;;;;;;;;;5059674;28;20462;-80
2023/03/01 05:55:05;;;;;;;75.93;28.23;;;;;;;;;;5078561;28;20024;-79
2023/03/01 05:57:30;;;;;;;94.07;35.65;;;;;;;;;;5083256;28;20936;-79
2023/03/01 05:59:56;;;;;;;78.75;30.90;;;;;;;;;;5067434;28;20100;-79
2023/03/01 06:02:21;;;;;;;100.30;35.35;;;;;;;;;;5083260;28;20404;-80
2023/03/01 06:04:47;;;;;;;81.28;31.60;;;;;;;;;;5077636;28;20451;-79
2023/03/01 06:07:12;;;;;;;82.60;32.55;;;;;;;;;;5090845;28;20024;-81
2023/03/01 06:09:38;;;;;;;77.05;31.15;;;;;;;;;;5085825;28;20199;-79
2023/03/01 06:12:04;;;;;;;84.40;31.52;;;;;;;;;;5078711;28;20074;-79
2023/03/01 06:14:30;;;;;;;76.80;28.90;;;;;;;;;;5065109;28;20028;-78
2023/03/01 06:16:56;;;;;;;80.75;29.67;;;;;;;;;;5060669;28;20029;-79
2023/03/01 06:19:22;;;;;;;83.30;32.35;;;;;;;;;;5082842;28;20456;-78
2023/03/01 06:21:47;;;;;;;80.88;30.05;;;;;;;;;;5080206;28;20042;-78
2023/03/01 06:24:13;;;;;;;71.32;27.02;;;;;;;;;;5080059;28;20042;-79
2023/03/01 06:26:39;;;;;;;84.05;34.15;;;;;;;;;;5083944;28;20032;-79
2023/03/01 06:29:08;;;;;;;68.13;24.67;;;;;;;;;;5073703;28;20405;-78
2023/03/01 06:31:34;;;;;;;64.60;26.87;;;;;;;;;;5065299;28;20101;-78
2023/03/01 06:34:00;;;;;;;66.18;26.17;;;;;;;;;;5070159;28;20044;-78
2023/03/01 06:36:25;;;;;;;63.92;26.80;;;;;;;;;;5081400;28;20089;-78
2023/03/01 06:38:51;;;;;;;58.47;22.70;;;;;;;;;;5077169;28;20093;-79
2023/03/01 06:41:16;;;;;;;63.67;25.27;;;;;;;;;;5054780;28;20114;-79
2023/03/01 06:43:42;;;;;;;60.13;23.67;;;;;;;;;;5083612;28;20075;-78
2023/03/01 06:46:08;;;;;;;67.32;28.25;;;;;;;;;;5072788;28;20024;-79
2023/03/01 06:48:39;;;;;;;69.35;27.20;;;;;;;;;;5082137;28;20024;-80
2023/03/01 06:51:06;;;;;;;63.78;26.10;;;;;;;;;;5050633;28;20028;-77
2023/03/01 06:53:31;;;;;;;67.18;26.13;;;;;;;;;;5080538;28;20028;-78
2023/03/01 06:55:57;;;;;;;75.00;29.90;;;;;;;;;;5077164;28;20093;-79
2023/03/01 06:58:23;;;;;;;62.85;26.85;;;;;;;;;;5063627;28;20398;-78
2023/03/01 07:00:48;;;;;;;66.65;27.15;;;;;;;;;;5082561;28;20085;-77
2023/03/01 07:03:14;;;;;;;59.88;25.35;;;;;;;;;;5078422;28;20067;-80
2023/03/01 07:05:39;;;;;;;73.50;27.33;;;;;;;;;;5069588;28;20059;-78
2023/03/01 07:08:05;;;;;;;66.70;27.42;;;;;;;;;;5084636;28;20546;-78
2023/03/01 07:10:31;;;;;;;68.25;28.85;;;;;;;;;;5076485;28;20021;-78
2023/03/01 07:12:57;;;;;;;65.72;28.02;;;;;;;;;;5065431;28;20140;-80
2023/03/01 07:15:23;;;;;;;71.10;29.10;;;;;;;;;;5064046;28;20119;-78
2023/03/01 07:17:50;;;;;;;68.88;29.40;;;;;;;;;;5063516;28;20427;-79
2023/03/01 07:20:17;;;;;;;58.78;27.10;;;;;;;;;;5076921;28;20029;-77
2023/03/01 07:22:42;;;;;;;57.67;25.77;;;;;;;;;;5080276;28;20490;-79
2023/03/01 07:25:09;;;;;;;75.63;32.55;;;;;;;;;;5072435;28;20024;-78
2023/03/01 07:27:34;;;;;;;66.53;28.98;;;;;;;;;;5078472;28;20036;-79
2023/03/01 07:30:00;;;;;;;58.10;26.85;;;;;;;;;;5080098;28;20085;-78
2023/03/01 07:32:25;;;;;;;53.75;24.30;;;;;;;;;;5080358;28;20067;-78
2023/03/01 07:34:51;;;;;;;82.28;36.00;;;;;;;;;;5090605;28;20044;-78
2023/03/01 07:37:17;;;;;;;72.90;34.22;;;;;;;;;;5062672;28;20048;-78
2023/03/01 07:39:43;;;;;;;68.45;28.10;;;;;;;;;;5081725;28;20047;-81
2023/03/01 07:42:08;;;;;;;59.40;25.67;;;;;;;;;;5086451;28;20953;-79
2023/03/01 07:44:34;;;;;;;56.78;24.25;;;;;;;;;;5051605;28;20036;-82
2023/03/01 07:47:15;;;;;;;62.70;28.48;;;;;;;;;;5067791;28;20275;-80
2023/03/01 07:49:41;;;;;;;62.75;26.88;;;;;;;;;;5053910;28;20039;-81
2023/03/01 07:52:06;;;;;;;60.80;25.77;;;;;;;;;;5050490;28;20027;-80
2023/03/01 07:54:35;;;;;;;62.15;28.38;;;;;;;;;;5068051;28;20374;-82
2023/03/01 07:57:00;;;;;;;65.95;28.77;;;;;;;;;;5049896;28;20075;-82
2023/03/01 07:59:28;;;;;;;60.15;27.38;;;;;;;;;;5067509;28;20032;-80
2023/03/01 08:01:55;;;;;;;64.20;29.90;;;;;;;;;;5070096;28;20219;-80
2023/03/01 08:04:21;;;;;;;75.18;33.47;;;;;;;;;;5068157;28;20021;-80
2023/03/01 08:06:46;;;;;;;60.33;27.50;;;;;;;;;;5068703;28;20092;-80
2023/03/01 08:09:11;;;;;;;71.45;34.03;;;;;;;;;;5067978;28;20025;-80
2023/03/01 08:11:38;;;;;;;56.67;26.67;;;;;;;;;;5066847;28;20098;-80
2023/03/01 08:14:03;;;;;;;64.05;28.20;;;;;;;;;;5051658;28;20029;-79
2023/03/01 08:16:29;;;;;;;61.63;28.73;;;;;;;;;;5068139;28;20029;-80
2023/03/01 08:18:56;;;;;;;60.25;27.30;;;;;;;;;;5050649;28;20036;-80
2023/03/01 08:21:22;;;;;;;62.80;29.40;;;;;;;;;;5069576;28;20442;-80
2023/03/01 08:23:47;;;;;;;60.17;26.60;;;;;;;;;;5064264;28;20035;-80
2023/03/01 08:26:18;;;;;;;63.65;29.60;;;;;;;;;;5077991;28;20504;-79
2023/03/01 08:28:43;;;;;;;63.35;29.58;;;;;;;;;;5072940;28;20021;-78
2023/03/01 08:31:19;;;;;;;66.13;29.00;;;;;;;;;;5076310;28;20082;-80
2023/03/01 08:33:50;;;;;;;57.08;25.75;;;;;;;;;;5071052;28;20036;-77
2023/03/01 08:36:16;;;;;;;65.80;29.05;;;;;;;;;;5068428;28;20497;-79
2023/03/01 08:38:41;;;;;;;74.15;37.10;;;;;;;;;;5070214;28;20276;-79
2023/03/01 08:41:07;;;;;;;63.17;29.73;;;;;;;;;;5054199;28;20036;-80
2023/03/01 08:43:32;;;;;;;63.08;28.30;;;;;;;;;;5071676;28;20047;-80
2023/03/01 08:45:58;;;;;;;61.00;29.27;;;;;;;;;;5071887;28;20108;-79
2023/03/01 08:48:23;;;;;;;79.88;36.40;;;;;;;;;;5067072;28;20020;-78
2023/03/01 08:50:48;;;;;;;60.28;27.60;;;;;;;;;;5071820;28;20028;-80
2023/03/01 08:53:14;;;;;;;66.13;30.80;;;;;;;;;;5071146;28;20066;-77
2023/03/01 08:55:40;;;;;;;70.00;30.92;;;;;;;;;;5093767;28;20032;-80
2023/03/01 08:58:06;;;;;;;42.58;20.20;;;;;;;;;;5087417;28;20050;-79
2023/03/01 09:00:34;;;;;;;56.80;26.23;;;;;;;;;;5080258;28;20020;-79
2023/03/01 09:03:00;;;;;;;56.55;28.10;;;;;;;;;;5090835;28;20024;-78
2023/03/01 09:05:26;;;;;;;58.58;26.33;;;;;;;;;;5057298;28;20088;-79
2023/03/01 09:07:51;;;;;;;60.88;27.70;;;;;;;;;;5041724;28;20035;-80
2023/03/01 09:10:17;;;;;;;60.92;27.10;;;;;;;;;;5092343;28;20417;-79
2023/03/01 09:12:42;;;;;;;57.47;26.00;;;;;;;;;;5073700;28;20035;-80
2023/03/01 09:15:08;;;;;;;47.58;21.10;;;;;;;;;;5092754;28;20201;-81
2023/03/01 09:17:34;;;;;;;52.63;23.92;;;;;;;;;;5075259;28;20539;-80
2023/03/01 09:20:00;;;;;;;49.03;21.10;;;;;;;;;;5074486;28;20032;-81
2023/03/01 09:22:25;;;;;;;54.67;24.60;;;;;;;;;;5093912;28;20034;-80
2023/03/01 09:24:51;;;;;;;54.13;23.13;;;;;;;;;;5094537;28;20039;-81
2023/03/01 09:27:18;;;;;;;53.80;25.50;;;;;;;;;;5092801;28;20044;-80
2023/03/01 09:29:44;;;;;;;56.38;25.10;;;;;;;;;;5093604;28;20031;-80
2023/03/01 09:32:10;;;;;;;56.55;26.00;;;;;;;;;;5075136;28;20031;-80
2023/03/01 09:35:00;;;;;;;56.75;26.05;;;;;;;;;;5076276;28;20128;-80
2023/03/01 09:37:21;;;;;;;53.42;24.15;;;;;;;;;;5093471;28;20464;-79
2023/03/01 09:39:46;;;;;;;55.97;25.83;;;;;;;;;;5092686;28;20017;-82
2023/03/01 09:42:12;;;;;;;62.00;25.67;;;;;;;;;;5095133;28;20437;-79
2023/03/01 09:44:45;;;;;;;55.25;26.25;;;;;;;;;;5077329;28;20135;-79
2023/03/01 09:47:18;;;;;;;56.13;25.23;;;;;;;;;;5096376;28;20130;-80
2023/03/01 09:49:48;;;;;;;54.55;25.92;;;;;;;;;;5051879;28;20060;-78
2023/03/01 09:52:40;;;;;;;52.10;24.07;;;;;;;;;;5059481;28;20454;-80
2023/03/01 09:55:45;;;;;;;51.38;24.75;;;;;;;;;;5058065;28;20043;-80
2023/03/01 09:58:38;;;;;;;59.28;27.90;;;;;;;;;;5021592;28;20029;-81
2023/03/01 10:01:13;;;;;;;55.30;25.38;;;;;;;;;;5001746;28;20029;-80
2023/03/01 10:03:38;;;;;;;58.50;26.10;;;;;;;;;;5029924;28;20097;-80
2023/03/01 10:06:19;;;;;;;69.03;31.02;;;;;;;;;;5090470;28;20032;-80
2023/03/01 10:09:09;;;;;;;75.07;35.42;;;;;;;;;;5092112;28;20126;-78
2023/03/01 10:11:50;;;;;;;73.28;29.65;;;;;;;;;;5114239;28;20028;-79
2023/03/01 10:14:33;;;;;;;70.55;32.47;;;;;;;;;;5091349;28;20032;-80
2023/03/01 10:17:02;;;;;;;64.97;29.52;;;;;;;;;;5038897;28;20038;-80
2023/03/01 10:19:32;;;;;;;65.63;31.17;;;;;;;;;;5068643;28;20137;-79
2023/03/01 10:22:02;;;;;;;66.80;28.98;;;;;;;;;;5061058;28;20025;-80
2023/03/01 10:24:28;;;;;;;64.40;31.42;;;;;;;;;;5066074;28;20031;-78
2023/03/01 10:26:58;;;;;;;64.18;29.33;;;;;;;;;;5067300;28;20246;-80
2023/03/01 10:29:39;;;;;;;63.67;27.42;;;;;;;;;;5104910;28;20028;-79
2023/03/01 10:32:08;;;;;;;62.05;29.58;;;;;;;;;;5048976;28;20028;-79
2023/03/01 10:34:34;;;;;;;72.97;32.47;;;;;;;;;;5085701;28;20040;-78
2023/03/01 10:37:21;;;;;;;66.22;32.10;;;;;;;;;;5100650;28;20419;-78
2023/03/01 10:40:07;;;;;;;58.95;27.42;;;;;;;;;;5097935;28;20338;-80
2023/03/01 10:42:35;;;;;;;59.05;28.88;;;;;;;;;;5055687;28;20123;-78
2023/03/01 10:45:19;;;;;;;51.28;25.38;;;;;;;;;;5057913;28;20742;-77
2023/03/01 10:47:44;;;;;;;61.80;29.38;;;;;;;;;;5080857;28;20047;-79
2023/03/01 10:50:22;;;;;;;55.85;25.90;;;;;;;;;;5091969;28;20028;-80
2023/03/01 10:53:04;;;;;;;52.90;25.35;;;;;;;;;;5070192;28;20099;-78
2023/03/01 10:55:37;;;;;;;64.03;28.95;;;;;;;;;;5074269;28;20021;-78
2023/03/01 10:58:19;;;;;;;60.63;30.10;;;;;;;;;;5062643;28;20036;-79
2023/03/01 11:01:00;;;;;;;59.63;27.27;;;;;;;;;;5054577;28;20032;-80
2023/03/01 11:03:36;;;;;;;53.65;23.27;;;;;;;;;;5060586;28;20029;-78
2023/03/01 11:06:20;;;;;;;57.60;26.40;;;;;;;;;;5032184;28;20112;-79
2023/03/01 11:08:46;;;;;;;65.80;28.63;;;;;;;;;;5055473;28;20677;-79
2023/03/01 11:11:25;;;;;;;65.90;30.00;;;;;;;;;;5049091;28;20051;-78
2023/03/01 11:14:15;;;;;;;64.60;29.92;;;;;;;;;;5043330;28;20386;-79
2023/03/01 11:16:43;;;;;;;55.45;24.63;;;;;;;;;;5077958;28;20164;-77
2023/03/01 11:19:09;;;;;;;57.00;25.83;;;;;;;;;;5047451;28;20036;-79
2023/03/01 11:21:36;;;;;;;47.58;22.55;;;;;;;;;;5061404;28;20127;-79
2023/03/01 11:24:03;;;;;;;63.33;25.73;;;;;;;;;;5044563;28;20449;-80
2023/03/01 11:26:29;;;;;;;57.55;27.98;;;;;;;;;;5052923;28;20065;-80
2023/03/01 11:28:56;;;;;;;53.72;23.90;;;;;;;;;;5065901;28;20374;-77
2023/03/01 11:31:21;;;;;;;60.40;26.40;;;;;;;;;;5030650;28;20051;-79
2023/03/01 11:34:19;;;;;;;53.83;25.80;;;;;;;;;;5032660;28;20526;-79
2023/03/01 11:36:49;;;;;;;41.42;19.65;;;;;;;;;;5031455;28;20066;-79
2023/03/01 11:39:27;;;;;;;48.83;22.92;;;;;;;;;;5068369;28;20059;-79
2023/03/01 11:42:05;;;;;;;45.75;21.17;;;;;;;;;;5080262;28;20477;-79
2023/03/01 11:44:31;;;;;;;49.38;24.55;;;;;;;;;;5057715;28;20020;-79
2023/03/01 11:47:33;;;;;;;46.80;21.88;;;;;;;;;;5061815;28;20047;-79
2023/03/01 11:50:04;;;;;;;58.63;27.63;;;;;;;;;;5081231;28;20057;-77
2023/03/01 11:52:49;;;;;;;56.83;27.85;;;;;;;;;;5081131;28;20436;-78
2023/03/01 11:55:20;;;;;;;60.03;27.38;;;;;;;;;;5089423;28;20073;-78
2023/03/01 11:58:13;;;;;;;71.68;33.78;;;;;;;;;;5041304;28;20381;-79
2023/03/01 12:01:01;;;;;;;53.67;25.42;;;;;;;;;;5088727;28;20028;-78
2023/03/01 12:03:45;;;;;;;55.72;27.30;;;;;;;;;;5071633;28;20068;-78
2023/03/01 12:06:23;;;;;;;49.92;23.40;;;;;;;;;;5080669;28;20028;-78
2023/03/01 12:09:17;;;;;;;60.50;25.63;;;;;;;;;;5095803;28;20096;-77
2023/03/01 12:12:16;;;;;;;51.38;22.63;;;;;;;;;;5041636;28;20127;-78
2023/03/01 12:15:10;;;;;;;46.50;21.17;;;;;;;;;;5057636;28;20452;-78
2023/03/01 12:17:44;;;;;;;52.03;24.08;;;;;;;;;;5078585;28;20047;-78
2023/03/01 12:20:22;;;;;;;57.63;25.35;;;;;;;;;;5082406;28;20044;-79
2023/03/01 12:23:07;;;;;;;45.35;20.77;;;;;;;;;;5067009;28;20493;-78
2023/03/01 12:25:45;;;;;;;49.78;24.90;;;;;;;;;;5089805;28;20028;-79
2023/03/01 12:28:40;;;;;;;42.50;21.30;;;;;;;;;;5047789;28;20020;-82
2023/03/01 12:31:17;;;;;;;43.70;20.15;;;;;;;;;;5045474;28;20048;-79
2023/03/01 12:33:53;;;;;;;45.47;21.70;;;;;;;;;;5075144;28;20044;-78
2023/03/01 12:36:37;;;;;;;38.35;18.70;;;;;;;;;;5053550;28;20488;-78
2023/03/01 12:39:18;;;;;;;42.40;21.00;;;;;;;;;;5075453;28;20035;-79
2023/03/01 12:42:18;;;;;;;;;;;;;;;;;;5093820;28;20032;-79
2023/03/01 12:45:01;;;;;;;44.25;20.63;;;;;;;;;;5011178;28;20354;-78
2023/03/01 12:47:45;;;;;;;45.65;22.42;;;;;;;;;;5086936;28;20396;-77
2023/03/01 12:50:20;;;;;;;48.30;21.80;;;;;;;;;;5093968;28;20031;-79
2023/03/01 12:52:53;;;;;;;48.10;21.02;;;;;;;;;;5077211;28;20024;-77
2023/03/01 12:55:35;;;;;;;45.30;21.02;;;;;;;;;;5077432;28;20074;-77
2023/03/01 12:58:25;;;;;;;52.88;25.45;;;;;;;;;;5077266;28;20024;-76
2023/03/01 13:01:16;;;;;;;53.67;25.70;;;;;;;;;;5094401;28;20028;-78
2023/03/01 13:04:15;;;;;;;50.17;23.58;;;;;;;;;;5078092;28;20032;-77
2023/03/01 13:06:43;;;;;;;48.35;22.52;;;;;;;;;;5094688;28;20280;-77
2023/03/01 13:09:34;;;;;;;47.97;21.55;;;;;;;;;;5080181;28;20025;-78
2023/03/01 13:11:59;;;;;;;41.50;19.35;;;;;;;;;;5057990;28;20028;-77
2023/03/01 13:14:25;;;;;;;45.30;21.67;;;;;;;;;;5058939;28;20028;-78
2023/03/01 13:16:51;;;;;;;54.67;24.77;;;;;;;;;;5075997;28;20063;-78
2023/03/01 13:19:17;;;;;;;63.40;29.30;;;;;;;;;;5075715;28;20355;-77
2023/03/01 13:21:44;;;;;;;58.25;26.00;;;;;;;;;;5055192;28;20035;-78
2023/03/01 13:24:32;;;;;;;50.65;23.80;;;;;;;;;;5076542;28;20028;-78
2023/03/01 13:27:07;;;;;;;49.17;23.48;;;;;;;;;;5077062;28;20032;-75
2023/03/01 13:30:05;;;;;;;50.88;23.75;;;;;;;;;;5095046;28;20460;-76
2023/03/01 13:32:38;;;;;;;43.92;19.23;;;;;;;;;;5078219;28;20162;-78
2023/03/01 13:35:16;;;;;;;45.83;20.73;;;;;;;;;;5061593;28;20124;-77
2023/03/01 13:37:42;;;;;;;40.20;20.35;;;;;;;;;;5094965;28;20028;-78
2023/03/01 13:40:18;;;;;;;50.08;23.02;;;;;;;;;;5057595;28;20373;-76
2023/03/01 13:42:50;;;;;;;39.83;20.58;;;;;;;;;;5094235;28;20433;-77
2023/03/01 13:45:15;;;;;;;45.85;23.42;;;;;;;;;;5075991;28;20024;-76
2023/03/01 13:47:41;;;;;;;50.17;24.48;;;;;;;;;;5094212;28;20456;-76
2023/03/01 13:50:07;;;;;;;41.97;19.67;;;;;;;;;;5076835;28;20031;-77
2023/03/01 13:52:44;;;;;;;51.90;24.52;;;;;;;;;;5076389;28;20039;-80
2023/03/01 13:55:18;;;;;;;50.70;23.95;;;;;;;;;;5077764;28;20034;-81
2023/03/01 13:57:53;;;;;;;56.28;25.92;;;;;;;;;;5076770;28;20084;-78
2023/03/01 14:00:25;;;;;;;95.30;37.83;;;;;;;;;;5077214;28;20373;-77
2023/03/01 14:03:01;;;;;;;124.78;53.65;;;;;;;;;;5095938;28;20067;-79
2023/03/01 14:05:27;;;;;;;63.58;29.35;;;;;;;;;;5094928;28;20024;-80
2023/03/01 14:07:53;;;;;;;99.30;48.25;;;;;;;;;;5078019;28;20494;-78
2023/03/01 14:10:18;;;;;;;53.92;27.10;;;;;;;;;;5096060;28;20028;-79
2023/03/01 14:12:53;;;;;;;48.58;24.20;;;;;;;;;;5096213;28;20064;-79
2023/03/01 14:15:29;;;;;;;45.80;21.33;;;;;;;;;;5096178;28;20088;-79
2023/03/01 14:18:05;;;;;;;59.45;29.00;;;;;;;;;;5077984;28;20031;-79
2023/03/01 14:20:32;;;;;;;57.85;27.70;;;;;;;;;;5095711;28;20111;-78
2023/03/01 14:22:59;;;;;;;53.28;25.65;;;;;;;;;;5076277;28;20028;-78
2023/03/01 14:25:32;;;;;;;53.95;24.73;;;;;;;;;;5057594;28;20442;-78
2023/03/01 14:28:02;;;;;;;54.92;25.83;;;;;;;;;;5092664;28;20143;-78
2023/03/01 14:30:37;;;;;;;55.92;24.95;;;;;;;;;;5075627;28;20105;-78
2023/03/01 14:33:06;;;;;;;52.83;26.17;;;;;;;;;;5060223;28;20110;-79
2023/03/01 14:35:33;;;;;;;61.97;28.88;;;;;;;;;;5059198;28;20040;-79